Time;durP1;ratioP1;P1;durP2;ratioP2;P2;SDS_P1;SDS_P2;PMS_P1;PMS_P2;Temp;Humidity;BMP_temperature;BMP_pressure;BME280_temperature;BME280_humidity;BME280_pressure;Samples;Min_cycle;Max_cycle;Signal;HPM_P1;HPM_P2
2022/05/01 00:01:14;;;;;;;9.57;5.22;;;;;;;;;;5039215;28;20068;-66
2022/05/01 00:03:39;;;;;;;10.10;5.43;;;;;;;;;;5030877;28;20061;-66
2022/05/01 00:06:09;;;;;;;10.63;5.07;;;;;;;;;;5037643;28;20052;-66
2022/05/01 00:08:38;;;;;;;16.77;5.72;;;;;;;;;;5039603;28;20577;-66
2022/05/01 00:11:04;;;;;;;12.45;5.65;;;;;;;;;;5032398;28;20584;-66
2022/05/01 00:13:30;;;;;;;11.35;5.20;;;;;;;;;;5029659;28;20561;-66
2022/05/01 00:15:56;;;;;;;10.57;5.50;;;;;;;;;;5040505;28;20042;-66
2022/05/01 00:18:21;;;;;;;9.82;5.78;;;;;;;;;;5034402;28;20574;-66
2022/05/01 00:20:47;;;;;;;11.73;5.90;;;;;;;;;;5035375;28;20124;-66
2022/05/01 00:23:13;;;;;;;13.45;5.65;;;;;;;;;;5037180;28;20056;-66
2022/05/01 00:25:41;;;;;;;12.10;5.80;;;;;;;;;;5035110;28;20399;-66
2022/05/01 00:28:10;;;;;;;12.40;6.32;;;;;;;;;;5034729;28;20044;-66
2022/05/01 00:30:36;;;;;;;13.88;8.25;;;;;;;;;;5033522;28;20924;-66
2022/05/01 00:38:30;;;;;;;17.75;8.43;;;;;;;;;;5034921;28;20472;-66
2022/05/01 00:40:56;;;;;;;14.57;7.70;;;;;;;;;;5041150;28;20067;-66
2022/05/01 00:43:21;;;;;;;14.65;7.57;;;;;;;;;;5036157;28;20524;-66
2022/05/01 00:45:47;;;;;;;16.00;7.18;;;;;;;;;;5030743;28;20033;-66
2022/05/01 00:48:12;;;;;;;13.25;6.90;;;;;;;;;;5033155;28;20051;-66
2022/05/01 00:50:37;;;;;;;15.00;7.18;;;;;;;;;;5029718;28;20037;-66
2022/05/01 00:53:05;;;;;;;12.38;6.68;;;;;;;;;;5037927;28;20044;-66
2022/05/01 00:55:36;;;;;;;13.70;7.15;;;;;;;;;;5036781;28;20052;-66
2022/05/01 00:58:03;;;;;;;12.55;6.90;;;;;;;;;;5035322;28;20115;-66
2022/05/01 01:00:29;;;;;;;14.05;7.65;;;;;;;;;;5033215;28;20108;-66
2022/05/01 01:02:54;;;;;;;13.70;7.38;;;;;;;;;;5030776;28;20112;-66
2022/05/01 01:05:20;;;;;;;16.10;7.32;;;;;;;;;;5032563;28;20044;-66
2022/05/01 01:07:45;;;;;;;13.32;6.03;;;;;;;;;;5038053;28;20045;-66
2022/05/01 01:10:10;;;;;;;12.45;6.68;;;;;;;;;;5034399;28;20040;-66
2022/05/01 01:12:54;;;;;;;15.05;6.50;;;;;;;;;;5034282;28;20035;-66
2022/05/01 01:15:28;;;;;;;11.73;6.30;;;;;;;;;;5026916;28;20115;-66
2022/05/01 01:17:54;;;;;;;12.82;6.93;;;;;;;;;;5031605;28;20053;-66
2022/05/01 01:20:27;;;;;;;14.73;6.85;;;;;;;;;;5037498;28;20597;-66
2022/05/01 01:22:57;;;;;;;12.90;6.78;;;;;;;;;;5031708;28;20148;-66
2022/05/01 01:25:27;;;;;;;12.10;6.20;;;;;;;;;;5029710;28;20053;-66
2022/05/01 01:27:56;;;;;;;10.65;5.90;;;;;;;;;;5028135;28;20065;-66
2022/05/01 01:33:06;;;;;;;11.25;6.55;;;;;;;;;;5030951;28;20056;-66
2022/05/01 01:35:35;;;;;;;12.20;6.60;;;;;;;;;;5025456;28;20045;-66
2022/05/01 01:38:01;;;;;;;12.55;6.28;;;;;;;;;;5027794;28;20486;-66
2022/05/01 01:40:29;;;;;;;14.15;6.80;;;;;;;;;;5037331;28;20041;-66
2022/05/01 01:42:57;;;;;;;13.85;6.82;;;;;;;;;;5035479;28;20037;-66
2022/05/01 01:45:25;;;;;;;14.77;7.32;;;;;;;;;;5035074;28;20037;-66
2022/05/01 01:47:50;;;;;;;16.58;9.05;;;;;;;;;;5036634;28;20127;-66
2022/05/01 01:50:19;;;;;;;16.92;8.82;;;;;;;;;;5043060;28;20054;-66
2022/05/01 01:52:49;;;;;;;16.88;8.35;;;;;;;;;;5031337;28;20036;-66
2022/05/01 01:55:17;;;;;;;15.00;7.97;;;;;;;;;;5042408;28;20068;-66
2022/05/01 01:57:47;;;;;;;15.43;8.05;;;;;;;;;;5036905;28;20065;-66
2022/05/01 02:00:13;;;;;;;19.52;8.98;;;;;;;;;;5032151;28;20502;-66
2022/05/01 02:02:39;;;;;;;15.43;7.70;;;;;;;;;;5028212;28;20040;-66
2022/05/01 02:05:05;;;;;;;14.82;8.35;;;;;;;;;;5035392;28;20041;-66
2022/05/01 02:07:31;;;;;;;11.45;5.65;;;;;;;;;;5035041;28;20044;-66
2022/05/01 02:09:57;;;;;;;13.68;6.38;;;;;;;;;;5035426;28;20053;-65
2022/05/01 02:12:23;;;;;;;13.60;6.55;;;;;;;;;;5036300;28;20486;-66
2022/05/01 02:14:48;;;;;;;13.40;5.95;;;;;;;;;;5040686;28;20118;-66
2022/05/01 02:17:14;;;;;;;12.00;6.53;;;;;;;;;;5035574;28;20037;-66
2022/05/01 02:19:39;;;;;;;14.10;6.35;;;;;;;;;;5040260;28;20763;-66
2022/05/01 02:22:04;;;;;;;13.90;6.47;;;;;;;;;;5037131;28;20060;-66
2022/05/01 02:24:30;;;;;;;13.93;6.28;;;;;;;;;;5042426;28;20053;-66
2022/05/01 02:26:56;;;;;;;12.20;6.35;;;;;;;;;;5038646;28;20450;-65
2022/05/01 02:29:21;;;;;;;13.98;6.63;;;;;;;;;;5041407;28;20079;-66
2022/05/01 02:31:53;;;;;;;11.45;6.63;;;;;;;;;;5039927;28;20045;-66
2022/05/01 02:34:20;;;;;;;14.43;6.50;;;;;;;;;;5034839;28;20041;-65
2022/05/01 02:36:46;;;;;;;12.93;6.40;;;;;;;;;;5038649;28;20033;-66
2022/05/01 02:39:13;;;;;;;13.80;6.07;;;;;;;;;;5044142;28;20521;-66
2022/05/01 02:41:38;;;;;;;13.80;6.35;;;;;;;;;;5030789;28;20053;-66
2022/05/01 02:44:03;;;;;;;15.07;6.90;;;;;;;;;;5030624;28;20041;-66
2022/05/01 02:46:29;;;;;;;14.25;6.68;;;;;;;;;;5037552;28;20033;-66
2022/05/01 02:48:55;;;;;;;12.23;6.15;;;;;;;;;;5038283;28;20045;-66
2022/05/01 02:51:20;;;;;;;13.95;6.25;;;;;;;;;;5037730;28;20723;-66
2022/05/01 02:53:46;;;;;;;11.63;6.28;;;;;;;;;;5035172;28;20087;-66
2022/05/01 02:56:11;;;;;;;12.32;6.20;;;;;;;;;;5039366;28;20079;-66
2022/05/01 02:58:36;;;;;;;15.27;6.82;;;;;;;;;;5038759;28;20735;-66
2022/05/01 03:01:02;;;;;;;18.33;8.07;;;;;;;;;;5038270;28;20037;-66
2022/05/01 03:03:28;;;;;;;12.50;6.75;;;;;;;;;;5043053;28;20064;-66
2022/05/01 03:05:54;;;;;;;16.92;7.13;;;;;;;;;;5037812;28;20056;-66
2022/05/01 03:08:21;;;;;;;14.40;6.60;;;;;;;;;;5044885;28;20037;-66
2022/05/01 03:10:47;;;;;;;13.63;6.60;;;;;;;;;;5045273;28;20610;-66
2022/05/01 03:13:13;;;;;;;10.55;6.20;;;;;;;;;;5043016;28;20175;-66
2022/05/01 03:15:39;;;;;;;14.30;6.80;;;;;;;;;;5039187;28;20527;-65
2022/05/01 03:23:33;;;;;;;16.23;7.32;;;;;;;;;;5038966;28;20502;-66
2022/05/01 03:25:58;;;;;;;13.43;6.72;;;;;;;;;;5034568;28;20061;-66
2022/05/01 03:28:25;;;;;;;15.93;7.40;;;;;;;;;;5032945;28;20072;-65
2022/05/01 03:30:52;;;;;;;14.30;6.70;;;;;;;;;;5040867;28;20041;-65
2022/05/01 03:33:21;;;;;;;12.80;7.00;;;;;;;;;;5036066;28;20029;-66
2022/05/01 03:35:47;;;;;;;16.35;6.78;;;;;;;;;;5038938;28;20037;-66
2022/05/01 03:38:12;;;;;;;13.55;6.63;;;;;;;;;;5047113;28;20524;-65
2022/05/01 03:40:37;;;;;;;14.48;6.65;;;;;;;;;;5038696;28;20075;-66
2022/05/01 03:43:04;;;;;;;13.77;6.70;;;;;;;;;;5042503;28;20092;-65
2022/05/01 03:45:30;;;;;;;13.80;6.55;;;;;;;;;;5040876;28;20044;-65
2022/05/01 03:47:55;;;;;;;14.98;7.13;;;;;;;;;;5041128;28;20056;-66
2022/05/01 03:50:20;;;;;;;13.65;6.78;;;;;;;;;;5035031;28;20038;-65
2022/05/01 03:52:47;;;;;;;14.05;6.78;;;;;;;;;;5043344;28;20041;-66
2022/05/01 03:55:12;;;;;;;11.68;6.88;;;;;;;;;;5042315;28;20036;-66
2022/05/01 03:57:38;;;;;;;12.85;6.30;;;;;;;;;;5035735;28;20071;-66
2022/05/01 04:00:05;;;;;;;13.43;6.32;;;;;;;;;;5039235;28;20487;-66
2022/05/01 04:02:39;;;;;;;17.90;7.30;;;;;;;;;;5034105;28;20096;-66
2022/05/01 04:05:05;;;;;;;15.98;7.32;;;;;;;;;;5035222;28;20441;-66
2022/05/01 04:07:31;;;;;;;13.75;6.38;;;;;;;;;;5042468;28;20594;-66
2022/05/01 04:09:56;;;;;;;18.23;7.00;;;;;;;;;;5046238;28;20052;-65
2022/05/01 04:12:21;;;;;;;13.27;6.95;;;;;;;;;;5038778;28;20024;-65
2022/05/01 04:14:46;;;;;;;15.95;7.03;;;;;;;;;;5038767;28;20132;-66
2022/05/01 04:17:12;;;;;;;13.65;6.82;;;;;;;;;;5031253;28;20068;-66
2022/05/01 04:19:37;;;;;;;17.52;7.00;;;;;;;;;;5033603;28;20041;-66
2022/05/01 04:22:04;;;;;;;14.32;6.55;;;;;;;;;;5041182;28;20711;-66
2022/05/01 04:24:29;;;;;;;13.10;6.50;;;;;;;;;;5037357;28;20037;-65
2022/05/01 04:26:55;;;;;;;15.35;7.53;;;;;;;;;;5044100;28;20028;-66
2022/05/01 04:29:36;;;;;;;14.50;7.25;;;;;;;;;;5040223;28;20122;-66
2022/05/01 04:32:02;;;;;;;12.55;6.75;;;;;;;;;;5037571;28;20094;-66
2022/05/01 04:34:28;;;;;;;13.23;7.00;;;;;;;;;;5034135;28;20041;-66
2022/05/01 04:36:53;;;;;;;13.77;6.75;;;;;;;;;;5041399;28;20043;-66
2022/05/01 04:39:18;;;;;;;15.82;7.03;;;;;;;;;;5036684;28;20033;-66
2022/05/01 04:41:44;;;;;;;13.88;6.85;;;;;;;;;;5039291;28;20072;-66
2022/05/01 04:44:10;;;;;;;11.70;6.38;;;;;;;;;;5035003;28;20128;-65
2022/05/01 04:46:36;;;;;;;12.27;6.60;;;;;;;;;;5038381;28;20091;-65
2022/05/01 04:49:02;;;;;;;11.43;6.28;;;;;;;;;;5031965;28;20041;-66
2022/05/01 04:51:27;;;;;;;12.52;6.35;;;;;;;;;;5039863;28;20021;-65
2022/05/01 04:53:53;;;;;;;14.07;6.88;;;;;;;;;;5041278;28;20519;-65
2022/05/01 04:59:02;;;;;;;15.00;6.85;;;;;;;;;;5037427;28;20072;-69
2022/05/01 05:01:27;;;;;;;16.83;7.45;;;;;;;;;;5036540;28;20037;-66
2022/05/01 05:03:52;;;;;;;13.93;7.47;;;;;;;;;;5036007;28;20048;-65
2022/05/01 05:06:18;;;;;;;18.63;7.70;;;;;;;;;;5036671;28;20049;-66
2022/05/01 05:11:27;;;;;;;16.50;7.70;;;;;;;;;;5034099;28;20110;-66
2022/05/01 05:13:52;;;;;;;14.93;7.57;;;;;;;;;;5044308;28;20060;-66
2022/05/01 05:16:18;;;;;;;15.63;8.02;;;;;;;;;;5044205;28;20120;-65
2022/05/01 05:18:43;;;;;;;14.52;8.05;;;;;;;;;;5039840;28;20033;-66
2022/05/01 05:21:09;;;;;;;15.90;8.15;;;;;;;;;;5039021;28;20127;-66
2022/05/01 05:23:34;;;;;;;17.73;8.32;;;;;;;;;;5027857;28;20045;-66
2022/05/01 05:26:00;;;;;;;20.45;8.70;;;;;;;;;;5039528;28;20861;-66
2022/05/01 05:28:25;;;;;;;15.88;8.30;;;;;;;;;;5042117;28;20087;-66
2022/05/01 05:30:51;;;;;;;18.58;8.18;;;;;;;;;;5041287;28;20403;-66
2022/05/01 05:33:17;;;;;;;19.38;8.60;;;;;;;;;;5037658;28;20033;-66
2022/05/01 05:35:43;;;;;;;20.40;8.85;;;;;;;;;;5031431;28;20033;-66
2022/05/01 05:38:08;;;;;;;16.58;8.95;;;;;;;;;;5040566;28;20048;-65
2022/05/01 05:40:33;;;;;;;20.80;8.80;;;;;;;;;;5039445;28;20459;-66
2022/05/01 05:42:59;;;;;;;21.50;9.93;;;;;;;;;;5040598;28;20041;-66
2022/05/01 05:45:24;;;;;;;20.23;9.90;;;;;;;;;;5038756;28;20033;-65
2022/05/01 05:47:50;;;;;;;21.70;9.95;;;;;;;;;;5035367;28;20049;-65
2022/05/01 05:50:15;;;;;;;19.60;10.02;;;;;;;;;;5033641;28;20041;-66
2022/05/01 05:52:40;;;;;;;19.55;10.20;;;;;;;;;;5035447;28;20041;-65
2022/05/01 05:55:06;;;;;;;22.52;10.65;;;;;;;;;;5044098;28;20045;-65
2022/05/01 05:57:32;;;;;;;26.33;12.65;;;;;;;;;;5040965;28;20025;-65
2022/05/01 05:59:57;;;;;;;26.20;12.85;;;;;;;;;;5040702;28;20387;-65
2022/05/01 06:02:22;;;;;;;27.25;12.90;;;;;;;;;;5039246;28;20606;-66
2022/05/01 06:04:48;;;;;;;32.33;13.70;;;;;;;;;;5050535;28;20056;-66
2022/05/01 06:07:13;;;;;;;31.52;13.90;;;;;;;;;;5039933;28;20055;-66
2022/05/01 06:09:38;;;;;;;27.42;13.25;;;;;;;;;;5041501;28;20018;-66
2022/05/01 06:12:04;;;;;;;28.98;14.55;;;;;;;;;;5040583;28;20021;-66
2022/05/01 06:14:29;;;;;;;31.85;15.38;;;;;;;;;;5042041;28;20051;-66
2022/05/01 06:16:55;;;;;;;33.38;16.58;;;;;;;;;;5039886;28;20055;-66
2022/05/01 06:19:20;;;;;;;29.98;15.57;;;;;;;;;;5030746;28;20064;-66
2022/05/01 06:21:45;;;;;;;30.73;13.20;;;;;;;;;;5030280;28;20418;-66
2022/05/01 06:24:11;;;;;;;33.03;15.13;;;;;;;;;;5032464;28;20474;-66
2022/05/01 06:26:36;;;;;;;33.95;15.43;;;;;;;;;;5050119;28;20040;-66
2022/05/01 06:29:01;;;;;;;33.83;14.93;;;;;;;;;;5043142;28;20106;-66
2022/05/01 06:31:28;;;;;;;33.35;15.38;;;;;;;;;;5038194;28;20175;-66
2022/05/01 06:33:54;;;;;;;34.55;15.15;;;;;;;;;;5039513;28;20044;-66
2022/05/01 06:36:19;;;;;;;35.67;15.90;;;;;;;;;;5036087;28;20422;-66
2022/05/01 06:38:45;;;;;;;31.92;16.15;;;;;;;;;;5035155;28;20045;-66
2022/05/01 06:41:11;;;;;;;32.95;15.95;;;;;;;;;;5040053;28;20103;-65
2022/05/01 06:43:36;;;;;;;33.45;15.43;;;;;;;;;;5044396;28;20485;-66
2022/05/01 06:46:02;;;;;;;34.97;16.50;;;;;;;;;;5039347;28;20037;-66
2022/05/01 06:48:27;;;;;;;41.25;16.85;;;;;;;;;;5035502;28;20040;-67
2022/05/01 06:50:53;;;;;;;38.50;17.40;;;;;;;;;;5035471;28;20505;-66
2022/05/01 06:53:18;;;;;;;39.97;17.83;;;;;;;;;;5034637;28;20041;-66
2022/05/01 06:55:44;;;;;;;35.83;17.42;;;;;;;;;;5036446;28;20088;-66
2022/05/01 06:58:09;;;;;;;40.55;17.58;;;;;;;;;;5037383;28;20041;-66
2022/05/01 07:00:35;;;;;;;44.47;18.85;;;;;;;;;;5034452;28;20545;-66
2022/05/01 07:03:00;;;;;;;38.33;18.23;;;;;;;;;;5038568;28;20021;-66
2022/05/01 07:05:26;;;;;;;42.22;17.30;;;;;;;;;;5034809;28;20087;-66
2022/05/01 07:07:52;;;;;;;42.55;19.58;;;;;;;;;;5036631;28;20038;-66
2022/05/01 07:10:19;;;;;;;41.13;18.48;;;;;;;;;;5039482;28;20041;-66
2022/05/01 07:12:44;;;;;;;41.13;18.58;;;;;;;;;;5038564;28;20041;-67
2022/05/01 07:15:10;;;;;;;42.10;18.30;;;;;;;;;;5031236;28;20032;-66
2022/05/01 07:17:35;;;;;;;40.50;18.02;;;;;;;;;;5039782;28;20061;-67
2022/05/01 07:20:02;;;;;;;43.42;18.60;;;;;;;;;;5036047;28;20042;-66
2022/05/01 07:22:28;;;;;;;38.90;18.70;;;;;;;;;;5036080;28;20491;-66
2022/05/01 07:24:54;;;;;;;39.85;17.00;;;;;;;;;;5035498;28;20182;-66
2022/05/01 07:27:19;;;;;;;41.20;17.35;;;;;;;;;;5036787;28;20177;-66
2022/05/01 07:29:44;;;;;;;39.55;17.40;;;;;;;;;;5038600;28;20071;-67
2022/05/01 07:32:10;;;;;;;39.22;17.30;;;;;;;;;;5041146;28;20037;-66
2022/05/01 07:34:35;;;;;;;40.70;18.27;;;;;;;;;;5041682;28;20041;-67
2022/05/01 07:37:01;;;;;;;41.38;16.42;;;;;;;;;;5039336;28;20124;-66
2022/05/01 07:39:26;;;;;;;34.97;16.25;;;;;;;;;;5038562;28;20549;-65
2022/05/01 07:41:52;;;;;;;34.22;16.67;;;;;;;;;;5032573;28;20025;-67
2022/05/01 07:44:17;;;;;;;42.42;18.52;;;;;;;;;;5031241;28;20127;-66
2022/05/01 07:46:43;;;;;;;41.53;17.63;;;;;;;;;;5036736;28;20037;-67
2022/05/01 07:49:09;;;;;;;43.85;17.30;;;;;;;;;;5036618;28;20041;-67
2022/05/01 07:51:35;;;;;;;36.55;17.73;;;;;;;;;;5036544;28;20051;-67
2022/05/01 07:54:02;;;;;;;39.75;17.85;;;;;;;;;;5037715;28;20120;-67
2022/05/01 07:56:28;;;;;;;34.38;15.50;;;;;;;;;;5037662;28;20041;-67
2022/05/01 07:58:54;;;;;;;35.72;16.20;;;;;;;;;;5034998;28;20043;-67
2022/05/01 08:01:20;;;;;;;35.72;15.73;;;;;;;;;;5038642;28;20063;-67
2022/05/01 08:06:29;;;;;;;;;;;;;;;;;;5037473;28;20094;-67
2022/05/01 08:08:55;;;;;;;36.00;14.82;;;;;;;;;;5035529;28;19913;-67
2022/05/01 08:11:20;;;;;;;33.95;15.73;;;;;;;;;;5038833;28;20041;-67
2022/05/01 08:13:45;;;;;;;31.95;15.55;;;;;;;;;;5026690;28;20033;-66
2022/05/01 08:16:11;;;;;;;35.75;14.48;;;;;;;;;;5034247;28;20086;-68
2022/05/01 08:21:21;;;;;;;23.27;11.18;;;;;;;;;;5032251;28;20039;-67
2022/05/01 08:23:47;;;;;;;19.80;9.38;;;;;;;;;;5029317;28;20029;-67
2022/05/01 08:26:13;;;;;;;18.52;9.63;;;;;;;;;;5039044;28;20032;-67
2022/05/01 08:28:40;;;;;;;20.23;10.38;;;;;;;;;;5038529;28;20044;-67
2022/05/01 08:31:06;;;;;;;22.83;10.88;;;;;;;;;;5032994;28;20065;-67
2022/05/01 08:33:33;;;;;;;18.48;10.30;;;;;;;;;;5034208;28;20065;-68
2022/05/01 08:35:59;;;;;;;26.88;11.55;;;;;;;;;;5033983;28;20075;-67
2022/05/01 08:38:25;;;;;;;24.15;11.63;;;;;;;;;;5035998;28;20025;-67
2022/05/01 08:40:51;;;;;;;23.60;11.15;;;;;;;;;;5036290;28;20041;-67
2022/05/01 08:43:18;;;;;;;18.65;9.98;;;;;;;;;;5040866;28;20033;-67
2022/05/01 08:45:53;;;;;;;18.58;9.60;;;;;;;;;;5036312;28;20099;-68
2022/05/01 08:48:39;;;;;;;19.77;9.90;;;;;;;;;;5036882;28;20438;-67
2022/05/01 08:51:05;;;;;;;15.93;8.60;;;;;;;;;;5043416;28;20068;-67
2022/05/01 08:53:31;;;;;;;18.05;9.38;;;;;;;;;;5037208;28;20536;-67
2022/05/01 08:55:58;;;;;;;19.35;9.10;;;;;;;;;;5036615;28;20746;-67
2022/05/01 08:58:26;;;;;;;19.73;10.13;;;;;;;;;;5036709;28;20026;-67
2022/05/01 09:00:52;;;;;;;17.77;9.68;;;;;;;;;;5031339;28;20041;-68
2022/05/01 09:03:18;;;;;;;18.50;9.55;;;;;;;;;;5038682;28;20033;-67
2022/05/01 09:05:44;;;;;;;19.88;10.77;;;;;;;;;;5039145;28;20032;-67
2022/05/01 09:08:09;;;;;;;19.45;9.82;;;;;;;;;;5032424;28;20037;-67
2022/05/01 09:10:36;;;;;;;15.85;8.40;;;;;;;;;;5025334;28;20038;-67
2022/05/01 09:13:01;;;;;;;21.15;9.65;;;;;;;;;;5034332;28;20052;-67
2022/05/01 09:15:36;;;;;;;19.20;9.43;;;;;;;;;;5033322;28;20186;-67
2022/05/01 09:18:10;;;;;;;17.13;8.32;;;;;;;;;;5032918;28;20029;-68
2022/05/01 09:20:39;;;;;;;;;;;;;;;;;;5039521;28;20033;-67
2022/05/01 09:23:06;;;;;;;18.40;9.13;;;;;;;;;;5032180;28;19971;-67
2022/05/01 09:25:32;;;;;;;17.65;9.63;;;;;;;;;;5031353;28;20042;-67
2022/05/01 09:28:00;;;;;;;16.52;8.90;;;;;;;;;;5038725;28;20033;-68
2022/05/01 09:30:31;;;;;;;15.00;8.23;;;;;;;;;;5035687;28;20032;-67
2022/05/01 09:32:57;;;;;;;16.23;8.85;;;;;;;;;;5041427;28;20028;-68
2022/05/01 09:35:22;;;;;;;17.40;9.07;;;;;;;;;;5032309;28;20383;-66
2022/05/01 09:37:48;;;;;;;16.23;9.35;;;;;;;;;;5036975;28;20604;-67
2022/05/01 09:40:30;;;;;;;14.20;7.65;;;;;;;;;;5033372;28;20115;-67
2022/05/01 09:42:55;;;;;;;13.30;7.60;;;;;;;;;;5037528;28;20045;-67
2022/05/01 09:45:29;;;;;;;12.93;7.40;;;;;;;;;;5036478;28;20028;-67
2022/05/01 09:47:54;;;;;;;13.95;7.07;;;;;;;;;;5039253;28;20122;-67
2022/05/01 09:50:38;;;;;;;12.75;7.70;;;;;;;;;;5031091;28;20040;-67
2022/05/01 09:53:04;;;;;;;12.73;7.63;;;;;;;;;;5034853;28;20541;-67
2022/05/01 09:55:30;;;;;;;11.30;6.90;;;;;;;;;;5025983;28;20037;-67
2022/05/01 09:58:04;;;;;;;12.05;7.28;;;;;;;;;;5032795;28;20040;-67
2022/05/01 10:00:37;;;;;;;12.23;6.53;;;;;;;;;;5031899;28;20032;-67
2022/05/01 10:03:28;;;;;;;12.00;6.95;;;;;;;;;;5034859;28;20025;-67
2022/05/01 10:05:56;;;;;;;10.70;6.38;;;;;;;;;;5030106;28;20144;-69
2022/05/01 10:08:22;;;;;;;9.85;5.72;;;;;;;;;;5032939;28;20094;-69
2022/05/01 10:10:50;;;;;;;8.88;5.88;;;;;;;;;;5027276;28;20037;-68
2022/05/01 10:13:16;;;;;;;11.95;5.85;;;;;;;;;;5032765;28;20064;-69
2022/05/01 10:15:42;;;;;;;8.38;5.65;;;;;;;;;;5031381;28;20056;-69
2022/05/01 10:18:08;;;;;;;9.73;5.78;;;;;;;;;;5033855;28;20022;-69
2022/05/01 10:20:37;;;;;;;10.93;6.20;;;;;;;;;;5035021;28;20107;-68
2022/05/01 10:23:03;;;;;;;10.60;6.30;;;;;;;;;;5035800;28;20040;-68
2022/05/01 10:25:33;;;;;;;9.70;5.70;;;;;;;;;;5037595;28;20785;-69
2022/05/01 10:28:22;;;;;;;9.60;5.93;;;;;;;;;;5034849;28;20041;-69
2022/05/01 10:33:57;;;;;;;11.00;6.40;;;;;;;;;;5032784;28;20048;-69
2022/05/01 10:36:48;;;;;;;12.43;6.85;;;;;;;;;;5039673;28;20138;-69
2022/05/01 10:39:15;;;;;;;15.75;7.50;;;;;;;;;;5036846;28;20049;-69
2022/05/01 10:41:45;;;;;;;13.90;7.13;;;;;;;;;;5037285;28;20052;-69
2022/05/01 10:44:31;;;;;;;11.60;7.45;;;;;;;;;;5036936;28;20037;-69
2022/05/01 10:47:13;;;;;;;12.05;7.07;;;;;;;;;;5036301;28;20469;-69
2022/05/01 10:49:43;;;;;;;9.85;6.72;;;;;;;;;;5038646;28;20120;-69
2022/05/01 10:52:23;;;;;;;13.10;7.45;;;;;;;;;;5034903;28;20045;-69
2022/05/01 10:54:54;;;;;;;9.85;6.43;;;;;;;;;;5037153;28;20040;-69
2022/05/01 10:57:19;;;;;;;11.93;7.25;;;;;;;;;;5036943;28;20032;-69
2022/05/01 10:59:47;;;;;;;12.40;7.65;;;;;;;;;;5031023;28;20046;-69
2022/05/01 11:02:22;;;;;;;12.13;7.10;;;;;;;;;;5036184;28;20144;-69
2022/05/01 11:04:49;;;;;;;11.43;7.32;;;;;;;;;;5034548;28;20044;-69
2022/05/01 11:07:16;;;;;;;12.57;6.95;;;;;;;;;;5037666;28;20080;-69
2022/05/01 11:09:47;;;;;;;13.00;7.85;;;;;;;;;;5039744;28;20021;-69
2022/05/01 11:12:14;;;;;;;12.05;7.32;;;;;;;;;;5036735;28;20131;-70
2022/05/01 11:14:56;;;;;;;12.48;7.68;;;;;;;;;;5040359;28;20061;-69
2022/05/01 11:17:27;;;;;;;11.40;7.75;;;;;;;;;;5035959;28;20080;-69
2022/05/01 11:19:53;;;;;;;12.82;7.95;;;;;;;;;;5037262;28;20437;-69
2022/05/01 11:22:27;;;;;;;12.98;8.35;;;;;;;;;;5038886;28;20037;-69
2022/05/01 11:24:53;;;;;;;14.32;8.00;;;;;;;;;;5037789;28;20040;-69
2022/05/01 11:27:21;;;;;;;12.60;8.27;;;;;;;;;;5039324;28;20037;-69
2022/05/01 11:30:09;;;;;;;13.80;8.70;;;;;;;;;;5038788;28;20973;-69
2022/05/01 11:32:47;;;;;;;13.10;8.25;;;;;;;;;;5036301;28;20047;-69
2022/05/01 11:35:13;;;;;;;13.88;8.25;;;;;;;;;;5036646;28;20066;-69
2022/05/01 11:38:05;;;;;;;11.57;7.88;;;;;;;;;;5032593;28;20076;-70
2022/05/01 11:40:32;;;;;;;11.40;7.78;;;;;;;;;;5038748;28;20025;-70
2022/05/01 11:43:17;;;;;;;11.80;7.30;;;;;;;;;;5035783;28;20041;-70
2022/05/01 11:45:42;;;;;;;14.93;8.43;;;;;;;;;;5041757;28;20489;-69
2022/05/01 11:48:16;;;;;;;12.95;8.48;;;;;;;;;;5054582;28;20092;-70
2022/05/01 11:50:43;;;;;;;13.88;8.15;;;;;;;;;;5037881;28;20061;-70
2022/05/01 11:53:17;;;;;;;10.93;7.70;;;;;;;;;;5035919;28;20791;-70
2022/05/01 12:04:01;;;;;;;11.10;6.43;;;;;;;;;;5032000;28;20052;-69
2022/05/01 12:06:28;;;;;;;10.30;6.53;;;;;;;;;;5033685;28;20053;-70
2022/05/01 12:08:54;;;;;;;11.40;7.07;;;;;;;;;;5029967;28;20667;-69
2022/05/01 12:11:29;;;;;;;10.48;6.78;;;;;;;;;;5043125;28;20040;-70
2022/05/01 12:14:05;;;;;;;10.88;6.60;;;;;;;;;;5034623;28;20113;-71
2022/05/01 12:16:31;;;;;;;9.95;6.47;;;;;;;;;;5031799;28;20030;-70
2022/05/01 12:18:57;;;;;;;12.63;6.22;;;;;;;;;;5034644;28;20418;-69
2022/05/01 12:21:29;;;;;;;10.25;6.22;;;;;;;;;;5038828;28;20061;-70
2022/05/01 12:24:01;;;;;;;9.57;6.75;;;;;;;;;;5039929;28;20048;-70
2022/05/01 12:26:26;;;;;;;11.52;6.55;;;;;;;;;;5034535;28;20533;-70
2022/05/01 12:28:52;;;;;;;9.00;5.97;;;;;;;;;;5036395;28;20033;-70
2022/05/01 12:31:19;;;;;;;12.52;7.28;;;;;;;;;;5038069;28;20029;-70
2022/05/01 12:33:52;;;;;;;12.27;7.53;;;;;;;;;;5037258;28;20040;-69
2022/05/01 12:36:26;;;;;;;11.77;7.20;;;;;;;;;;5035030;28;20418;-70
2022/05/01 12:39:03;;;;;;;11.05;7.18;;;;;;;;;;5035968;28;20045;-70
2022/05/01 12:44:12;;;;;;;10.23;6.22;;;;;;;;;;5039177;28;20045;-70
2022/05/01 12:46:39;;;;;;;10.60;6.72;;;;;;;;;;5035348;28;20038;-69
2022/05/01 12:49:05;;;;;;;11.88;6.35;;;;;;;;;;5032952;28;20496;-70
2022/05/01 12:51:41;;;;;;;13.05;6.57;;;;;;;;;;5036314;28;20032;-70
2022/05/01 12:54:08;;;;;;;10.85;6.90;;;;;;;;;;5034077;28;20026;-70
2022/05/01 12:56:34;;;;;;;12.38;6.90;;;;;;;;;;5036019;28;20041;-70
2022/05/01 12:59:00;;;;;;;10.35;6.65;;;;;;;;;;5030579;28;20542;-69
2022/05/01 13:01:27;;;;;;;10.02;6.97;;;;;;;;;;5030847;28;20059;-70
2022/05/01 13:03:54;;;;;;;12.50;7.55;;;;;;;;;;5037301;28;20118;-70
2022/05/01 13:06:22;;;;;;;14.95;7.53;;;;;;;;;;5035232;28;20427;-70
2022/05/01 13:08:53;;;;;;;11.70;7.53;;;;;;;;;;5035556;28;20037;-70
2022/05/01 13:11:23;;;;;;;10.25;7.25;;;;;;;;;;5036174;28;20515;-70
2022/05/01 13:14:04;;;;;;;11.65;6.68;;;;;;;;;;5033641;28;20033;-70
2022/05/01 13:16:32;;;;;;;9.75;7.07;;;;;;;;;;5035883;28;20121;-70
2022/05/01 13:19:11;;;;;;;11.40;7.13;;;;;;;;;;5037035;28;20087;-70
2022/05/01 13:21:45;;;;;;;11.10;7.15;;;;;;;;;;5037437;28;20022;-69
2022/05/01 13:24:32;;;;;;;12.98;8.20;;;;;;;;;;5034931;28;20037;-70
2022/05/01 13:27:03;;;;;;;11.60;7.10;;;;;;;;;;5036628;28;20053;-70
2022/05/01 13:29:32;;;;;;;12.95;7.32;;;;;;;;;;5029904;28;20033;-68
2022/05/01 13:31:59;;;;;;;15.90;7.50;;;;;;;;;;5035179;28;20132;-70
2022/05/01 13:34:25;;;;;;;10.15;6.63;;;;;;;;;;5032831;28;20110;-69
2022/05/01 13:36:51;;;;;;;14.10;6.18;;;;;;;;;;5037522;28;20036;-69
2022/05/01 13:39:17;;;;;;;9.52;6.18;;;;;;;;;;5039181;28;20040;-70
2022/05/01 13:44:45;;;;;;;8.35;5.75;;;;;;;;;;5038217;28;20480;-69
2022/05/01 13:47:12;;;;;;;8.95;5.57;;;;;;;;;;5035854;28;20036;-69
2022/05/01 13:49:38;;;;;;;13.40;6.32;;;;;;;;;;5035959;28;20048;-69
2022/05/01 13:52:05;;;;;;;10.70;6.50;;;;;;;;;;5035470;28;20681;-70
2022/05/01 13:54:30;;;;;;;10.27;6.28;;;;;;;;;;5032787;28;20029;-69
2022/05/01 13:56:56;;;;;;;10.10;6.32;;;;;;;;;;5028591;28;20061;-70
2022/05/01 13:59:21;;;;;;;11.00;6.40;;;;;;;;;;5032183;28;20690;-69
2022/05/01 14:01:51;;;;;;;11.35;6.93;;;;;;;;;;5033834;28;20037;-69
2022/05/01 14:04:20;;;;;;;8.65;6.07;;;;;;;;;;5033962;28;20068;-69
2022/05/01 14:06:46;;;;;;;10.18;6.03;;;;;;;;;;5031064;28;20725;-69
2022/05/01 14:09:17;;;;;;;9.30;6.70;;;;;;;;;;5033706;28;20505;-70
2022/05/01 14:11:48;;;;;;;8.63;6.07;;;;;;;;;;5052473;28;20132;-69
2022/05/01 14:14:15;;;;;;;11.10;6.93;;;;;;;;;;5036773;28;20060;-69
2022/05/01 14:16:42;;;;;;;10.55;6.40;;;;;;;;;;5037838;28;21606;-70
2022/05/01 14:19:21;;;;;;;11.02;7.20;;;;;;;;;;5038471;28;20052;-70
2022/05/01 14:21:47;;;;;;;14.07;6.13;;;;;;;;;;5036232;28;20052;-70
2022/05/01 14:24:15;;;;;;;10.65;6.75;;;;;;;;;;5038882;28;20100;-70
2022/05/01 14:26:41;;;;;;;9.70;5.97;;;;;;;;;;5033065;28;20627;-70
2022/05/01 14:29:07;;;;;;;10.70;7.25;;;;;;;;;;5040546;28;20064;-70
2022/05/01 14:32:01;;;;;;;8.77;6.85;;;;;;;;;;5035743;28;20129;-70
2022/05/01 14:34:38;;;;;;;10.05;6.50;;;;;;;;;;5029991;28;20033;-70
2022/05/01 14:37:05;;;;;;;12.77;7.25;;;;;;;;;;5036387;28;20583;-70
2022/05/01 14:39:30;;;;;;;13.20;7.97;;;;;;;;;;5036377;28;20021;-70
2022/05/01 14:41:58;;;;;;;11.27;7.15;;;;;;;;;;5038026;28;20048;-70
2022/05/01 14:44:34;;;;;;;10.25;7.10;;;;;;;;;;5038296;28;20034;-70
2022/05/01 14:47:04;;;;;;;12.27;7.63;;;;;;;;;;5038215;28;21321;-70
2022/05/01 14:49:39;;;;;;;12.95;8.27;;;;;;;;;;5036255;28;20064;-70
2022/05/01 14:52:05;;;;;;;12.68;8.80;;;;;;;;;;5037989;28;20033;-70
2022/05/01 14:54:33;;;;;;;11.32;8.45;;;;;;;;;;5039614;28;20070;-69
2022/05/01 14:57:00;;;;;;;12.60;7.38;;;;;;;;;;5035874;28;20021;-69
2022/05/01 15:07:53;;;;;;;11.95;7.90;;;;;;;;;;5039132;28;20579;-70
2022/05/01 15:10:20;;;;;;;12.57;7.55;;;;;;;;;;5033537;28;20037;-70
2022/05/01 15:12:45;;;;;;;13.63;8.27;;;;;;;;;;5042064;28;20041;-70
2022/05/01 15:15:11;;;;;;;13.50;9.05;;;;;;;;;;5033531;28;20634;-70
2022/05/01 15:17:41;;;;;;;13.30;8.60;;;;;;;;;;5033685;28;20039;-71
2022/05/01 15:20:26;;;;;;;11.07;7.28;;;;;;;;;;5036305;28;20117;-69
2022/05/01 15:22:54;;;;;;;11.82;7.30;;;;;;;;;;5036806;28;20059;-69